createdAt,value
2018-09-10T00:01:27.830Z,16.50
2018-09-10T00:03:56.331Z,16.76
2018-09-10T00:06:24.803Z,16.85
2018-09-10T00:08:53.110Z,16.76
2018-09-10T00:11:22.015Z,16.80
2018-09-10T00:13:50.811Z,16.81
2018-09-10T00:16:19.183Z,16.92
2018-09-10T00:18:47.649Z,16.74
2018-09-10T00:21:15.938Z,17.04
2018-09-10T00:23:44.396Z,16.76
2018-09-10T00:26:12.846Z,16.87
2018-09-10T00:28:41.258Z,16.97
2018-09-10T00:31:09.686Z,16.77
2018-09-10T00:33:38.010Z,16.76
2018-09-10T00:36:06.426Z,16.91
2018-09-10T00:38:34.767Z,17.09
2018-09-10T00:41:03.094Z,17.16
2018-09-10T00:43:31.460Z,17.29
2018-09-10T00:45:59.819Z,17.47
2018-09-10T00:48:28.189Z,17.40
2018-09-10T00:50:56.659Z,17.49
2018-09-10T00:53:25.006Z,17.23
2018-09-10T00:55:53.362Z,17.16
2018-09-10T00:58:21.825Z,17.22
2018-09-10T01:00:50.586Z,17.32
2018-09-10T01:03:18.935Z,17.43
2018-09-10T01:05:47.308Z,17.22
2018-09-10T01:08:15.628Z,17.31
2018-09-10T01:10:44.010Z,17.47
2018-09-10T01:13:12.394Z,17.40
2018-09-10T01:15:40.781Z,17.32
2018-09-10T01:18:09.152Z,17.53
2018-09-10T01:20:37.563Z,17.54
2018-09-10T01:23:05.907Z,17.44
2018-09-10T01:25:34.295Z,17.57
2018-09-10T01:28:02.771Z,17.55
2018-09-10T01:30:31.136Z,17.59
2018-09-10T01:32:59.769Z,17.59
2018-09-10T01:35:32.622Z,17.47
2018-09-10T01:38:00.978Z,17.50
2018-09-10T01:40:29.362Z,17.28
2018-09-10T01:42:57.743Z,17.47
2018-09-10T01:45:26.121Z,17.18
2018-09-10T01:47:54.530Z,17.32
2018-09-10T01:50:22.923Z,17.37
2018-09-10T01:52:51.235Z,17.25
2018-09-10T01:55:19.627Z,17.11
2018-09-10T01:57:48.016Z,17.14
2018-09-10T02:00:16.539Z,17.07
2018-09-10T02:02:44.859Z,16.87
2018-09-10T02:05:13.271Z,17.04
2018-09-10T02:07:41.595Z,17.10
2018-09-10T02:10:09.895Z,16.88
2018-09-10T02:12:38.331Z,17.02
2018-09-10T02:15:06.918Z,17.03
2018-09-10T02:17:35.231Z,16.55
2018-09-10T02:20:03.619Z,16.84
2018-09-10T02:22:31.979Z,16.82
2018-09-10T02:25:00.250Z,16.84
2018-09-10T02:27:28.621Z,16.73
2018-09-10T02:29:56.938Z,17.04
2018-09-10T02:32:25.328Z,17.16
2018-09-10T02:34:53.645Z,17.24
2018-09-10T02:37:22.022Z,17.10
2018-09-10T02:39:50.406Z,17.28
2018-09-10T02:42:18.767Z,17.07
2018-09-10T02:44:47.110Z,17.38
2018-09-10T02:47:15.414Z,17.52
2018-09-10T02:49:43.750Z,17.13
2018-09-10T02:52:12.143Z,17.50
2018-09-10T02:54:40.538Z,17.44
2018-09-10T02:57:09.122Z,17.52
2018-09-10T02:59:37.449Z,17.30
2018-09-10T03:02:05.911Z,17.47
2018-09-10T03:04:34.307Z,17.52
2018-09-10T03:07:02.744Z,17.61
2018-09-10T03:09:31.138Z,17.39
2018-09-10T03:11:59.462Z,17.40
2018-09-10T03:14:27.789Z,17.52
2018-09-10T03:16:56.133Z,17.49
2018-09-10T03:19:24.486Z,17.48
2018-09-10T03:21:52.795Z,17.42
2018-09-10T03:24:21.175Z,17.26
2018-09-10T03:26:49.523Z,17.46
2018-09-10T03:29:17.849Z,17.41
2018-09-10T03:31:46.176Z,17.30
2018-09-10T03:34:14.510Z,17.26
2018-09-10T03:36:42.927Z,17.57
2018-09-10T03:39:11.631Z,17.46
2018-09-10T03:41:39.980Z,17.32
2018-09-10T03:44:08.363Z,17.51
2018-09-10T03:46:36.742Z,17.22
2018-09-10T03:49:05.170Z,17.39
2018-09-10T03:51:33.635Z,17.39
2018-09-10T03:54:02.206Z,17.37
2018-09-10T03:56:30.711Z,17.27
2018-09-10T03:58:59.012Z,17.57
2018-09-10T04:01:27.420Z,17.39
2018-09-10T04:03:55.755Z,17.53
2018-09-10T04:06:24.150Z,17.45
2018-09-10T04:08:52.534Z,17.55
2018-09-10T04:11:20.875Z,17.54
2018-09-10T04:13:49.324Z,17.58
2018-09-10T04:16:17.607Z,17.52
2018-09-10T04:18:46.490Z,17.44
2018-09-10T04:21:14.970Z,17.53
2018-09-10T04:23:43.339Z,17.55
2018-09-10T04:26:11.799Z,17.41
2018-09-10T04:28:40.215Z,17.55
2018-09-10T04:31:08.620Z,17.61
2018-09-10T04:33:37.092Z,17.51
2018-09-10T04:36:05.652Z,17.56
2018-09-10T04:38:34.060Z,17.44
2018-09-10T04:41:02.491Z,17.37
2018-09-10T04:43:30.988Z,17.54
2018-09-10T04:45:59.359Z,17.66
2018-09-10T04:48:27.778Z,17.75
2018-09-10T04:50:56.209Z,17.70
2018-09-10T04:53:24.847Z,17.55
2018-09-10T04:55:53.198Z,17.45
2018-09-10T04:58:21.868Z,17.60
2018-09-10T05:00:50.436Z,17.58
2018-09-10T05:03:18.859Z,17.73
2018-09-10T05:05:47.250Z,17.78
2018-09-10T05:08:15.651Z,18.02
2018-09-10T05:10:44.055Z,18.12
2018-09-10T05:13:12.505Z,18.17
2018-09-10T05:15:40.978Z,18.37
2018-09-10T05:18:09.393Z,18.40
2018-09-10T05:20:37.779Z,18.49
2018-09-10T05:23:06.211Z,18.55
2018-09-10T05:25:34.652Z,18.44
2018-09-10T05:28:03.100Z,18.80
2018-09-10T05:30:31.454Z,19.00
2018-09-10T05:33:00.706Z,19.03
2018-09-10T05:35:29.398Z,19.23
2018-09-10T05:37:57.839Z,19.40
2018-09-10T05:40:26.324Z,19.43
2018-09-10T05:42:54.668Z,19.86
2018-09-10T05:45:23.062Z,19.92
2018-09-10T05:47:51.421Z,19.93
2018-09-10T05:50:19.926Z,19.88
2018-09-10T05:52:48.239Z,20.20
2018-09-10T05:55:16.584Z,20.42
2018-09-10T05:57:44.933Z,20.52
2018-09-10T06:00:13.374Z,20.47
2018-09-10T06:02:41.736Z,20.32
2018-09-10T06:05:10.059Z,20.82
2018-09-10T06:07:38.437Z,20.88
2018-09-10T06:10:07.535Z,21.28
2018-09-10T06:12:35.917Z,21.30
2018-09-10T06:15:04.342Z,21.62
2018-09-10T06:17:32.656Z,21.91
2018-09-10T06:20:01.068Z,21.95
2018-09-10T06:22:29.818Z,22.42
2018-09-10T06:24:59.150Z,22.11
2018-09-10T06:27:27.548Z,21.98
2018-09-10T06:29:55.967Z,22.07
2018-09-10T06:32:24.391Z,22.05
2018-09-10T06:34:52.729Z,22.28
2018-09-10T06:37:21.100Z,22.53
2018-09-10T06:39:49.528Z,23.10
2018-09-10T06:42:18.012Z,22.56
2018-09-10T06:44:46.418Z,22.50
2018-09-10T06:47:14.860Z,22.07
2018-09-10T06:49:43.288Z,22.43
2018-09-10T06:52:11.746Z,22.26
2018-09-10T06:54:40.168Z,22.44
2018-09-10T06:57:08.607Z,22.45
2018-09-10T06:59:37.111Z,22.37
2018-09-10T07:02:05.620Z,22.73
2018-09-10T07:04:34.051Z,22.85
2018-09-10T07:07:02.471Z,23.42
2018-09-10T07:09:30.868Z,23.02
2018-09-10T07:11:59.234Z,23.27
2018-09-10T07:14:27.629Z,23.20
2018-09-10T07:16:55.931Z,22.38
2018-09-10T07:19:24.358Z,22.89
2018-09-10T07:21:52.962Z,22.98
2018-09-10T07:24:21.368Z,23.00
2018-09-10T07:26:49.844Z,22.97
2018-09-10T07:29:18.250Z,22.61
2018-09-10T07:31:46.643Z,22.27
2018-09-10T07:34:15.014Z,22.84
2018-09-10T07:36:43.368Z,22.60
2018-09-10T07:39:12.538Z,22.44
2018-09-10T07:41:40.939Z,23.30
2018-09-10T07:44:09.602Z,23.66
2018-09-10T07:46:38.308Z,23.77
2018-09-10T07:49:06.854Z,23.58
2018-09-10T07:51:35.223Z,23.41
2018-09-10T07:54:03.625Z,23.16
2018-09-10T07:56:32.111Z,23.24
2018-09-10T07:59:00.514Z,22.98
2018-09-10T08:01:29.020Z,22.86
2018-09-10T08:03:57.411Z,22.76
2018-09-10T08:06:25.834Z,22.93
2018-09-10T08:08:54.191Z,22.93
2018-09-10T08:11:22.595Z,22.75
2018-09-10T08:13:51.070Z,22.84
2018-09-10T08:16:19.488Z,22.83
2018-09-10T08:18:47.896Z,23.44
2018-09-10T08:21:16.333Z,22.92
2018-09-10T08:23:45.778Z,23.95
2018-09-10T08:26:14.360Z,25.04
2018-09-10T08:28:42.815Z,25.54
2018-09-10T08:31:11.249Z,26.48
2018-09-10T08:33:39.796Z,26.53
2018-09-10T08:36:08.194Z,26.41
2018-09-10T08:38:36.632Z,26.05
2018-09-10T08:41:05.089Z,27.20
2018-09-10T08:43:33.491Z,27.96
2018-09-10T08:46:01.922Z,28.18
2018-09-10T08:48:30.403Z,27.31
2018-09-10T08:50:58.727Z,26.38
2018-09-10T08:53:27.075Z,25.84
2018-09-10T08:55:55.761Z,25.98
2018-09-10T08:58:23.874Z,27.30
2018-09-10T09:00:52.269Z,27.99
2018-09-10T09:03:20.678Z,27.28
2018-09-10T09:05:49.142Z,27.04
2018-09-10T09:08:17.737Z,26.84
2018-09-10T09:10:46.095Z,27.54
2018-09-10T09:13:14.450Z,26.57
2018-09-10T09:15:42.824Z,26.77
2018-09-10T09:18:11.179Z,26.28
2018-09-10T09:20:39.522Z,26.30
2018-09-10T09:23:07.890Z,25.79
2018-09-10T09:25:36.301Z,26.04
2018-09-10T09:28:04.671Z,25.91
2018-09-10T09:30:33.087Z,25.54
2018-09-10T09:33:01.489Z,26.09
2018-09-10T09:35:36.026Z,26.13
2018-09-10T09:38:10.403Z,25.45
2018-09-10T09:40:44.023Z,25.57
2018-09-10T09:43:17.819Z,26.25
2018-09-10T09:45:51.343Z,25.57
2018-09-10T09:48:19.826Z,25.40
2018-09-10T09:50:48.229Z,25.33
2018-09-10T09:53:16.608Z,26.04
2018-09-10T09:55:44.979Z,26.63
2018-09-10T09:58:13.390Z,26.29
2018-09-10T10:00:47.006Z,27.27
2018-09-10T10:03:15.773Z,28.28
2018-09-10T10:05:44.667Z,29.48
2018-09-10T10:08:13.091Z,29.37
2018-09-10T10:10:41.461Z,28.76
2018-09-10T10:13:10.000Z,28.30
2018-09-10T10:15:38.416Z,28.29
2018-09-10T10:18:06.960Z,29.47
2018-09-10T10:20:35.982Z,29.65
2018-09-10T10:23:04.382Z,28.68
2018-09-10T10:25:32.812Z,29.24
2018-09-10T10:28:01.236Z,30.02
2018-09-10T10:30:29.641Z,29.83
2018-09-10T10:32:58.039Z,30.18
2018-09-10T10:35:26.469Z,30.13
2018-09-10T10:37:54.838Z,30.16
2018-09-10T10:40:23.299Z,30.90
2018-09-10T10:42:51.743Z,30.79
2018-09-10T10:45:20.141Z,30.20
2018-09-10T10:47:48.567Z,30.64
2018-09-10T10:50:17.014Z,31.42
2018-09-10T10:52:45.698Z,30.56
2018-09-10T10:55:14.069Z,29.40
2018-09-10T10:57:42.620Z,29.44
2018-09-10T11:00:11.162Z,29.90
2018-09-10T11:02:39.624Z,29.76
2018-09-10T11:05:08.035Z,29.72
2018-09-10T11:07:36.451Z,29.69
2018-09-10T11:10:05.290Z,30.07
2018-09-10T11:12:33.690Z,29.47
2018-09-10T11:15:02.082Z,29.17
2018-09-10T11:17:31.084Z,28.89
2018-09-10T11:19:59.591Z,28.77
2018-09-10T11:22:28.243Z,27.53
2018-09-10T11:24:56.559Z,27.62
2018-09-10T11:27:25.178Z,27.78
2018-09-10T11:29:53.665Z,27.14
2018-09-10T11:32:22.138Z,27.39
2018-09-10T11:34:50.575Z,27.88
2018-09-10T11:37:18.943Z,28.33
2018-09-10T11:39:47.307Z,28.42
2018-09-10T11:42:15.647Z,29.97
2018-09-10T11:44:43.978Z,30.41
2018-09-10T11:47:12.365Z,31.53
2018-09-10T11:49:40.846Z,32.61
2018-09-10T11:52:09.327Z,31.47
2018-09-10T11:54:37.678Z,31.44
2018-09-10T11:57:06.063Z,31.66
2018-09-10T11:59:34.396Z,31.35
2018-09-10T12:02:02.885Z,31.38
2018-09-10T12:04:31.173Z,31.83
2018-09-10T12:06:59.614Z,31.33
2018-09-10T12:09:27.954Z,29.87
2018-09-10T12:11:56.372Z,29.93
2018-09-10T12:14:24.767Z,29.29
2018-09-10T12:16:53.207Z,28.18
2018-09-10T12:19:21.578Z,27.50
2018-09-10T12:21:50.098Z,27.82
2018-09-10T12:24:18.497Z,26.44
2018-09-10T12:26:46.965Z,26.11
2018-09-10T12:29:15.345Z,26.82
2018-09-10T12:31:43.750Z,26.03
2018-09-10T12:34:12.178Z,26.57
2018-09-10T12:36:40.569Z,26.47
2018-09-10T12:39:10.331Z,26.90
2018-09-10T12:41:38.798Z,27.15
2018-09-10T12:44:07.695Z,27.72
2018-09-10T12:46:36.526Z,27.94
2018-09-10T12:49:04.904Z,27.64
2018-09-10T12:51:33.362Z,27.34
2018-09-10T12:54:01.782Z,26.85
2018-09-10T12:56:30.216Z,27.71
2018-09-10T12:58:58.668Z,27.66
2018-09-10T13:01:27.013Z,27.11
2018-09-10T13:03:55.435Z,27.40
2018-09-10T13:06:23.859Z,26.83
2018-09-10T13:08:52.558Z,26.46
2018-09-10T13:11:20.962Z,26.35
2018-09-10T13:13:49.532Z,25.99
2018-09-10T13:16:17.924Z,26.10
2018-09-10T13:18:46.345Z,25.97
2018-09-10T13:21:14.766Z,26.16
2018-09-10T13:23:43.212Z,26.25
2018-09-10T13:26:11.675Z,25.56
2018-09-10T13:28:40.084Z,25.32
2018-09-10T13:31:08.471Z,25.55
2018-09-10T13:33:36.862Z,25.66
2018-09-10T13:36:05.250Z,25.80
2018-09-10T13:38:33.720Z,26.16
2018-09-10T13:41:02.199Z,26.05
2018-09-10T13:43:30.577Z,26.12
2018-09-10T13:45:58.973Z,25.52
2018-09-10T13:48:27.429Z,25.33
2018-09-10T13:50:55.861Z,25.44
2018-09-10T13:53:24.277Z,25.66
2018-09-10T13:55:52.652Z,26.57
2018-09-10T13:58:21.249Z,25.52
2018-09-10T14:00:49.674Z,25.44
2018-09-10T14:03:18.050Z,26.18
2018-09-10T14:05:46.443Z,25.36
2018-09-10T14:08:14.854Z,25.38
2018-09-10T14:10:43.288Z,25.97
2018-09-10T14:13:11.745Z,25.04
2018-09-10T14:15:40.136Z,25.72
2018-09-10T14:18:08.797Z,25.40
2018-09-10T14:20:37.199Z,25.81
2018-09-10T14:23:05.613Z,25.00
2018-09-10T14:25:34.015Z,25.41
2018-09-10T14:28:02.448Z,25.82
2018-09-10T14:30:30.910Z,25.60
2018-09-10T14:32:59.232Z,25.16
2018-09-10T14:35:27.561Z,24.06
2018-09-10T14:37:55.930Z,24.92
2018-09-10T14:40:24.334Z,24.84
2018-09-10T14:42:52.783Z,24.96
2018-09-10T14:45:21.172Z,25.30
2018-09-10T14:47:49.567Z,25.64
2018-09-10T14:50:18.250Z,24.92
2018-09-10T14:52:46.630Z,25.24
2018-09-10T14:55:15.025Z,25.13
2018-09-10T14:57:43.384Z,24.88
2018-09-10T15:00:17.066Z,25.07
2018-09-10T15:02:45.352Z,24.66
2018-09-10T15:05:13.656Z,25.05
2018-09-10T15:07:42.222Z,25.36
2018-09-10T15:10:10.484Z,24.98
2018-09-10T15:12:38.879Z,24.50
2018-09-10T15:15:07.210Z,25.00
2018-09-10T15:17:35.794Z,24.73
2018-09-10T15:20:04.211Z,24.66
2018-09-10T15:22:32.647Z,24.75
2018-09-10T15:25:01.048Z,24.98
2018-09-10T15:27:29.460Z,24.71
2018-09-10T15:29:57.878Z,24.32
2018-09-10T15:32:26.240Z,24.36
2018-09-10T15:34:54.838Z,23.82
2018-09-10T15:37:23.192Z,23.39
2018-09-10T15:39:51.686Z,24.37
2018-09-10T15:42:20.105Z,24.46
2018-09-10T15:44:48.553Z,23.77
2018-09-10T15:47:16.971Z,24.29
2018-09-10T15:49:45.380Z,24.58
2018-09-10T15:52:13.810Z,24.41
2018-09-10T15:54:42.299Z,24.19
2018-09-10T15:57:10.874Z,24.00
2018-09-10T15:59:39.337Z,24.19
2018-09-10T16:02:07.843Z,24.72
2018-09-10T16:04:36.241Z,24.65
2018-09-10T16:07:04.600Z,24.51
2018-09-10T16:09:33.012Z,24.02
2018-09-10T16:12:01.410Z,23.55
2018-09-10T16:14:29.799Z,23.67
2018-09-10T16:16:58.255Z,23.80
2018-09-10T16:19:26.695Z,23.61
2018-09-10T16:21:55.119Z,23.91
2018-09-10T16:24:23.535Z,23.47
2018-09-10T16:26:51.938Z,23.62
2018-09-10T16:29:20.342Z,23.72
2018-09-10T16:31:48.763Z,23.48
2018-09-10T16:34:17.201Z,23.40
2018-09-10T16:36:45.610Z,22.73
2018-09-10T16:39:14.005Z,23.45
2018-09-10T16:41:42.423Z,23.49
2018-09-10T16:44:10.811Z,23.28
2018-09-10T16:46:39.226Z,23.10
2018-09-10T16:49:07.712Z,23.10
2018-09-10T16:51:36.090Z,22.69
2018-09-10T16:54:04.558Z,22.63
2018-09-10T16:56:32.899Z,23.30
2018-09-10T16:59:01.342Z,23.60
2018-09-10T17:01:29.763Z,23.19
2018-09-10T17:03:58.136Z,23.07
2018-09-10T17:06:26.844Z,23.00
2018-09-10T17:08:55.210Z,23.11
2018-09-10T17:11:23.606Z,22.92
2018-09-10T17:13:51.990Z,23.10
2018-09-10T17:16:27.085Z,23.43
2018-09-10T17:18:55.466Z,23.25
2018-09-10T17:21:23.864Z,23.05
2018-09-10T17:23:52.274Z,23.09
2018-09-10T17:26:20.731Z,23.11
2018-09-10T17:28:49.188Z,22.59
2018-09-10T17:31:17.602Z,22.91
2018-09-10T17:33:46.014Z,22.61
2018-09-10T17:36:14.474Z,23.04
2018-09-10T17:38:42.876Z,22.59
2018-09-10T17:41:11.322Z,22.71
2018-09-10T17:43:39.678Z,22.97
2018-09-10T17:46:08.959Z,22.92
2018-09-10T17:48:37.312Z,22.75
2018-09-10T17:51:05.594Z,22.76
2018-09-10T17:53:33.978Z,22.63
2018-09-10T17:56:02.306Z,22.75
2018-09-10T17:58:30.720Z,22.32
2018-09-10T18:00:59.084Z,22.28
2018-09-10T18:03:27.484Z,22.15
2018-09-10T18:05:55.828Z,22.58
2018-09-10T18:08:24.194Z,22.64
2018-09-10T18:10:52.559Z,22.47
2018-09-10T18:13:21.018Z,22.36
2018-09-10T18:15:49.257Z,22.13
2018-09-10T18:18:17.781Z,21.98
2018-09-10T18:20:46.120Z,22.28
2018-09-10T18:23:14.442Z,22.39
2018-09-10T18:25:42.774Z,22.31
2018-09-10T18:28:11.184Z,22.22
2018-09-10T18:30:39.630Z,22.19
2018-09-10T18:33:08.035Z,21.90
2018-09-10T18:35:36.433Z,21.84
2018-09-10T18:38:04.823Z,21.73
2018-09-10T18:40:33.514Z,21.96
2018-09-10T18:43:02.288Z,21.61
2018-09-10T18:45:30.795Z,21.65
2018-09-10T18:48:06.473Z,21.44
2018-09-10T18:50:34.928Z,21.68
2018-09-10T18:53:03.432Z,22.00
2018-09-10T18:55:32.015Z,22.00
2018-09-10T18:58:00.627Z,21.62
2018-09-10T19:00:29.046Z,21.71
2018-09-10T19:02:57.555Z,21.71
2018-09-10T19:05:26.005Z,21.50
2018-09-10T19:07:55.381Z,21.26
2018-09-10T19:10:23.800Z,21.29
2018-09-10T19:12:53.314Z,21.38
2018-09-10T19:15:22.599Z,21.05
2018-09-10T19:17:51.044Z,20.73
2018-09-10T19:20:20.473Z,20.79
2018-09-10T19:22:50.591Z,20.79
2018-09-10T19:25:19.055Z,20.51
2018-09-10T19:27:47.484Z,20.66
2018-09-10T19:30:15.955Z,20.87
2018-09-10T19:32:44.558Z,20.55
2018-09-10T19:35:12.963Z,20.51
2018-09-10T19:37:41.490Z,20.77
2018-09-10T19:40:09.867Z,20.42
2018-09-10T19:42:38.332Z,20.53
2018-09-10T19:45:06.878Z,21.06
2018-09-10T19:47:35.310Z,20.76
2018-09-10T19:50:03.858Z,21.08
2018-09-10T19:52:32.261Z,20.99
2018-09-10T19:55:00.634Z,21.06
2018-09-10T19:57:29.028Z,20.79
2018-09-10T19:59:57.574Z,20.33
2018-09-10T20:02:26.234Z,20.36
2018-09-10T20:04:54.658Z,20.21
2018-09-10T20:07:23.071Z,20.21
2018-09-10T20:09:51.586Z,20.21
2018-09-10T20:12:20.055Z,20.10
2018-09-10T20:14:48.439Z,19.93
2018-09-10T20:17:16.904Z,20.18
2018-09-10T20:19:45.278Z,19.97
2018-09-10T20:22:15.144Z,20.13
2018-09-10T20:24:43.604Z,20.35
2018-09-10T20:27:12.051Z,20.19
2018-09-10T20:29:40.454Z,20.23
2018-09-10T20:32:09.768Z,20.33
2018-09-10T20:34:38.110Z,20.23
2018-09-10T20:37:06.524Z,20.54
2018-09-10T20:39:34.925Z,19.89
2018-09-10T20:42:03.212Z,20.10
2018-09-10T20:44:31.597Z,20.24
2018-09-10T20:46:59.915Z,20.00
2018-09-10T20:49:28.225Z,19.90
2018-09-10T20:51:56.583Z,20.35
2018-09-10T20:54:24.905Z,20.35
2018-09-10T20:56:53.231Z,20.31
2018-09-10T20:59:21.579Z,20.66
2018-09-10T21:01:49.947Z,20.30
2018-09-10T21:04:18.298Z,19.88
2018-09-10T21:06:46.567Z,20.33
2018-09-10T21:09:14.936Z,20.50
2018-09-10T21:11:43.270Z,20.38
2018-09-10T21:14:11.652Z,20.43
2018-09-10T21:16:39.973Z,20.61
2018-09-10T21:19:08.367Z,20.62
2018-09-10T21:21:36.766Z,20.43
2018-09-10T21:24:05.208Z,20.24
2018-09-10T21:26:33.598Z,20.54
2018-09-10T21:29:01.984Z,20.22
2018-09-10T21:31:30.383Z,20.44
2018-09-10T21:33:58.650Z,20.27
2018-09-10T21:36:27.066Z,20.41
2018-09-10T21:38:55.434Z,19.92
2018-09-10T21:41:23.859Z,20.04
2018-09-10T21:43:52.267Z,20.09
2018-09-10T21:46:20.637Z,20.32
2018-09-10T21:48:49.051Z,20.21
2018-09-10T21:51:17.453Z,20.15
2018-09-10T21:53:45.936Z,20.40
2018-09-10T21:56:14.283Z,20.17
2018-09-10T21:58:42.619Z,20.00
2018-09-10T22:01:11.026Z,20.37
2018-09-10T22:03:39.431Z,20.50
2018-09-10T22:06:07.834Z,20.45
2018-09-10T22:08:36.187Z,20.80
2018-09-10T22:11:04.606Z,20.44
2018-09-10T22:13:32.975Z,20.60
2018-09-10T22:16:01.384Z,20.58
2018-09-10T22:18:29.733Z,20.14
2018-09-10T22:20:58.090Z,20.58
2018-09-10T22:23:26.390Z,20.71
2018-09-10T22:25:54.759Z,20.27
2018-09-10T22:28:23.021Z,20.16
2018-09-10T22:30:51.442Z,19.76
2018-09-10T22:33:19.787Z,20.40
2018-09-10T22:35:48.197Z,20.37
2018-09-10T22:38:16.754Z,20.14
2018-09-10T22:40:45.007Z,20.07
2018-09-10T22:43:13.341Z,19.23
2018-09-10T22:45:41.674Z,18.94
2018-09-10T22:48:10.088Z,19.26
2018-09-10T22:50:38.451Z,19.19
2018-09-10T22:53:06.715Z,19.42
2018-09-10T22:55:35.171Z,19.36
2018-09-10T22:58:03.427Z,19.21
2018-09-10T23:00:31.831Z,19.19
2018-09-10T23:03:00.208Z,19.53
2018-09-10T23:05:28.481Z,19.61
2018-09-10T23:07:56.865Z,19.35
2018-09-10T23:10:25.277Z,19.89
2018-09-10T23:12:53.799Z,19.45
2018-09-10T23:15:22.181Z,19.24
2018-09-10T23:17:50.620Z,19.64
2018-09-10T23:20:19.042Z,19.74
2018-09-10T23:22:47.452Z,19.34
2018-09-10T23:25:15.885Z,19.81
2018-09-10T23:27:44.378Z,19.35
2018-09-10T23:30:12.884Z,19.60
2018-09-10T23:32:41.279Z,19.48
2018-09-10T23:35:09.685Z,19.83
2018-09-10T23:37:38.102Z,19.84
2018-09-10T23:40:06.618Z,20.17
2018-09-10T23:42:35.028Z,19.99
2018-09-10T23:45:03.450Z,20.26
2018-09-10T23:47:31.914Z,19.25
2018-09-10T23:50:00.334Z,19.53
2018-09-10T23:52:28.782Z,19.72
2018-09-10T23:54:57.223Z,19.83
2018-09-10T23:57:25.647Z,19.20
2018-09-10T23:59:54.418Z,19.70
